createdAt,value
2019-05-16T00:24:38.486Z,26.50
2019-05-16T02:47:51.426Z,29.90
2019-05-16T02:51:16.581Z,30.00
2019-05-16T02:54:42.354Z,29.70
2019-05-16T02:58:11.544Z,29.70
2019-05-16T03:01:05.111Z,29.70
2019-05-16T03:03:40.233Z,30.00
2019-05-16T03:06:16.304Z,30.10
2019-05-16T03:08:54.101Z,30.20
2019-05-16T03:11:31.241Z,30.20
2019-05-16T03:14:04.853Z,30.40
2019-05-16T03:16:41.745Z,30.50
2019-05-16T03:19:17.156Z,30.50
2019-05-16T03:22:00.972Z,30.50
2019-05-16T03:24:31.145Z,30.70
2019-05-16T03:27:21.569Z,30.60
2019-05-16T03:30:01.370Z,30.50
2019-05-16T03:32:34.763Z,30.50
2019-05-16T03:35:15.349Z,30.40
2019-05-16T03:38:00.604Z,30.30
2019-05-16T03:40:31.766Z,30.10
2019-05-16T03:43:06.166Z,30.10
2019-05-16T03:45:41.799Z,30.50
2019-05-16T03:48:24.916Z,30.90
2019-05-16T03:51:01.335Z,31.00
2019-05-16T03:53:41.568Z,31.30
2019-05-16T03:56:15.808Z,31.50
2019-05-16T03:58:54.097Z,31.50
2019-05-16T04:01:31.503Z,31.70
2019-05-16T04:04:25.200Z,31.60
2019-05-16T04:07:01.622Z,31.70
2019-05-16T04:09:42.980Z,31.40
2019-05-16T04:12:16.471Z,31.50
2019-05-16T04:18:04.408Z,31.70
2019-05-16T04:20:40.623Z,31.60
2019-05-16T04:23:14.945Z,31.90
2019-05-16T04:25:52.395Z,32.00
2019-05-16T04:28:25.328Z,31.90
2019-05-16T04:31:01.996Z,31.60
2019-05-16T04:33:36.209Z,31.50
2019-05-16T04:36:11.354Z,31.40
2019-05-16T04:38:46.921Z,31.00
2019-05-16T04:41:21.728Z,30.80
2019-05-16T04:44:00.093Z,30.70
2019-05-16T04:46:32.095Z,30.40
2019-05-16T04:49:10.926Z,30.40
2019-05-16T04:51:43.413Z,30.40
2019-05-16T04:54:21.302Z,30.40
2019-05-16T04:56:53.414Z,30.30
2019-05-16T04:59:30.928Z,30.40
2019-05-16T05:02:07.617Z,30.40
2019-05-16T05:04:43.271Z,30.60
2019-05-16T05:07:20.395Z,30.90
2019-05-16T05:09:54.807Z,31.20
2019-05-16T05:12:31.497Z,31.60
2019-05-16T05:15:06.955Z,31.90
2019-05-16T05:17:43.945Z,31.50
2019-05-16T05:20:20.942Z,31.10
2019-05-16T05:22:55.523Z,30.80
2019-05-16T05:25:30.836Z,30.50
2019-05-16T05:28:13.541Z,30.30
2019-05-16T05:30:50.266Z,30.20
2019-05-16T05:33:24.171Z,30.20
2019-05-16T05:36:01.003Z,30.00
2019-05-16T05:38:36.075Z,30.00
2019-05-16T05:41:11.105Z,30.00
2019-05-16T05:43:46.957Z,29.90
2019-05-16T05:46:21.532Z,29.90
2019-05-16T05:48:56.359Z,29.80
2019-05-16T05:51:32.499Z,29.60
2019-05-16T05:54:07.922Z,29.30
2019-05-16T05:56:50.091Z,29.20
2019-05-16T05:59:24.951Z,29.50
2019-05-16T06:02:00.815Z,29.80
2019-05-16T06:04:35.658Z,30.10
2019-05-16T06:07:10.568Z,30.70
2019-05-16T06:09:53.473Z,31.00
2019-05-16T06:12:21.905Z,31.10
2019-05-16T06:14:56.222Z,31.30
2019-05-16T06:17:33.327Z,31.50
2019-05-16T06:20:14.275Z,31.80
2019-05-16T06:22:44.979Z,31.90
2019-05-16T06:25:22.659Z,32.20
2019-05-16T06:27:55.417Z,32.20
2019-05-16T06:30:31.317Z,32.40
2019-05-16T06:33:06.612Z,32.20
2019-05-16T06:35:41.843Z,31.90
2019-05-16T06:38:20.636Z,31.80
2019-05-16T06:40:55.661Z,31.60
2019-05-16T06:43:31.799Z,31.50
2019-05-16T06:46:06.554Z,31.50
2019-05-16T06:48:41.439Z,31.80
2019-05-16T06:51:23.363Z,32.00
2019-05-16T06:53:56.950Z,32.20
2019-05-16T06:56:31.474Z,32.20
2019-05-16T06:59:06.192Z,32.30
2019-05-16T07:01:41.564Z,32.30
2019-05-16T07:04:20.217Z,32.20
2019-05-16T07:06:58.945Z,31.90
2019-05-16T07:09:30.119Z,31.50
2019-05-16T07:12:04.630Z,31.20
2019-05-16T07:14:40.538Z,31.00
2019-05-16T07:17:14.467Z,30.90
2019-05-16T07:19:50.241Z,30.70
2019-05-16T07:22:24.582Z,30.80
2019-05-16T07:25:02.976Z,30.80
2019-05-16T07:27:44.073Z,30.70
2019-05-16T07:30:19.906Z,30.80
2019-05-16T07:32:54.931Z,30.90
2019-05-16T07:35:33.768Z,31.00
2019-05-16T07:38:10.578Z,31.30
2019-05-16T07:40:45.519Z,31.70
2019-05-16T07:43:20.715Z,31.70
2019-05-16T07:45:56.429Z,31.40
2019-05-16T07:48:31.759Z,31.40
2019-05-16T07:51:10.106Z,31.30
2019-05-16T07:53:43.347Z,31.30
2019-05-16T07:56:20.427Z,31.10
2019-05-16T07:58:55.338Z,30.90
2019-05-16T08:01:30.699Z,30.80
2019-05-16T08:04:05.501Z,30.60
2019-05-16T08:06:42.087Z,30.50
2019-05-16T08:09:16.226Z,30.20
2019-05-16T08:11:54.654Z,30.30
2019-05-16T08:14:34.834Z,30.70
2019-05-16T08:17:06.490Z,31.10
2019-05-16T08:19:41.715Z,31.60
2019-05-16T08:22:17.283Z,32.00
2019-05-16T08:24:54.580Z,32.20
2019-05-16T08:27:31.212Z,32.30
2019-05-16T08:30:05.180Z,32.40
2019-05-16T08:32:42.225Z,32.20
2019-05-16T08:35:15.827Z,32.20
2019-05-16T08:37:51.450Z,32.50
2019-05-16T08:40:27.352Z,32.70
2019-05-16T08:43:04.665Z,32.80
2019-05-16T08:45:41.809Z,32.70
2019-05-16T08:48:14.430Z,32.70
2019-05-16T08:53:26.359Z,32.30
2019-05-16T08:56:02.620Z,32.40
2019-05-16T08:58:41.122Z,32.60
2019-05-16T09:01:14.979Z,32.60
2019-05-16T09:03:51.698Z,32.50
2019-05-16T09:06:25.431Z,32.30
2019-05-16T09:09:10.228Z,32.20
2019-05-16T09:10:41.206Z,32.50
2019-05-16T09:11:43.985Z,32.20
2019-05-16T09:14:22.568Z,32.20
2019-05-16T09:16:53.128Z,32.30
2019-05-16T09:19:27.783Z,32.30
2019-05-16T09:22:02.205Z,32.40
2019-05-16T09:24:37.688Z,32.50
2019-05-16T09:27:13.176Z,32.50
2019-05-16T09:29:48.098Z,32.50
2019-05-16T09:32:22.440Z,32.60
2019-05-16T09:34:57.547Z,32.50
2019-05-16T09:37:32.239Z,32.20
2019-05-16T09:40:07.862Z,32.20
2019-05-16T09:42:42.487Z,32.20
2019-05-16T09:45:17.368Z,32.00
2019-05-16T09:47:52.294Z,31.90
2019-05-16T09:50:28.589Z,31.90
2019-05-16T09:53:02.536Z,31.80
2019-05-16T09:55:37.347Z,31.70
2019-05-16T09:58:12.856Z,31.40
2019-05-16T10:00:47.662Z,31.20
2019-05-16T10:03:22.662Z,31.20
2019-05-16T10:05:57.244Z,31.20
2019-05-16T10:08:34.235Z,31.00
2019-05-16T10:11:10.105Z,31.00
2019-05-16T10:13:48.880Z,30.80
2019-05-16T10:16:22.762Z,30.80
2019-05-16T10:18:57.216Z,30.80
2019-05-16T10:21:33.579Z,30.60
2019-05-16T10:24:10.890Z,30.60
2019-05-16T10:26:47.285Z,30.50
2019-05-16T10:29:21.221Z,30.30
2019-05-16T10:31:56.877Z,30.20
2019-05-16T10:34:31.748Z,30.10
2019-05-16T10:37:06.061Z,30.00
2019-05-16T10:39:40.942Z,29.90
2019-05-16T10:42:24.988Z,29.80
2019-05-16T10:44:50.865Z,29.80
2019-05-16T10:47:28.607Z,29.80
2019-05-16T10:50:01.140Z,29.60
2019-05-16T10:52:36.673Z,29.50
2019-05-16T10:55:11.241Z,29.40
2019-05-16T10:57:47.368Z,29.30
2019-05-16T11:00:48.986Z,29.20
2019-05-16T11:02:58.928Z,29.10
2019-05-16T11:05:36.033Z,29.00
2019-05-16T11:08:09.182Z,29.00
2019-05-16T11:10:43.913Z,28.90
2019-05-16T11:13:20.406Z,28.80
2019-05-16T11:15:53.939Z,28.70
2019-05-16T11:18:46.226Z,28.70
2019-05-16T11:21:34.279Z,28.60
2019-05-16T11:23:59.342Z,28.50
2019-05-16T11:26:39.605Z,28.40
2019-05-16T11:29:16.361Z,28.30
2019-05-16T11:31:50.022Z,28.20
2019-05-16T11:34:26.513Z,28.10
2019-05-16T11:37:08.723Z,28.10
2019-05-16T11:39:43.142Z,28.10
2019-05-16T11:42:18.833Z,28.00
2019-05-16T11:44:53.331Z,27.90
2019-05-16T11:47:28.164Z,27.90
2019-05-16T11:50:11.252Z,27.90
2019-05-16T11:52:47.756Z,27.80
2019-05-16T11:55:21.406Z,27.80
2019-05-16T11:57:56.962Z,27.90
2019-05-16T12:00:31.971Z,27.80
2019-05-16T12:03:06.352Z,27.80
2019-05-16T12:05:40.719Z,27.80
2019-05-16T12:08:17.207Z,27.70
2019-05-16T12:10:52.664Z,27.70
2019-05-16T12:13:32.362Z,27.70
2019-05-16T12:16:08.516Z,27.70
2019-05-16T12:18:42.843Z,27.70
2019-05-16T12:21:17.384Z,27.60
2019-05-16T12:23:57.464Z,27.60
2019-05-16T12:26:32.208Z,27.60
2019-05-16T12:29:11.692Z,27.60
2019-05-16T12:31:55.305Z,27.50
2019-05-16T12:34:24.949Z,27.50
2019-05-16T12:37:00.873Z,27.40
2019-05-16T12:39:37.643Z,27.40
2019-05-16T12:42:11.381Z,27.40
2019-05-16T12:44:46.862Z,27.50
2019-05-16T12:47:22.080Z,27.40
2019-05-16T12:50:02.235Z,27.40
2019-05-16T12:52:38.297Z,27.40
2019-05-16T12:55:12.106Z,27.40
2019-05-16T12:57:48.980Z,27.40
2019-05-16T13:00:23.320Z,27.40
2019-05-16T13:02:58.017Z,27.30
2019-05-16T13:05:37.860Z,27.40
2019-05-16T13:08:18.518Z,27.30
2019-05-16T13:10:53.343Z,27.30
2019-05-16T13:13:29.816Z,27.30
2019-05-16T13:16:07.573Z,27.20
2019-05-16T13:18:51.387Z,27.20
2019-05-16T13:21:27.605Z,27.20
2019-05-16T13:24:06.924Z,27.00
2019-05-16T13:26:47.652Z,27.00
2019-05-16T13:29:27.512Z,27.00
2019-05-16T13:32:04.120Z,26.90
2019-05-16T13:34:41.633Z,26.90
2019-05-16T13:37:20.676Z,26.90
2019-05-16T13:39:53.986Z,26.90
2019-05-16T13:42:37.281Z,26.90
2019-05-16T13:45:20.152Z,26.80
2019-05-16T13:47:53.185Z,26.80
2019-05-16T13:50:30.565Z,26.80
2019-05-16T13:53:10.552Z,26.80
2019-05-16T13:55:54.574Z,26.70
2019-05-16T13:58:31.681Z,26.60
2019-05-16T14:01:08.111Z,26.60
2019-05-16T14:03:56.874Z,26.60
2019-05-16T14:06:32.646Z,26.60
2019-05-16T14:09:08.705Z,26.50
2019-05-16T14:11:46.643Z,26.50
2019-05-16T14:14:34.779Z,26.50
2019-05-16T14:16:59.142Z,26.50
2019-05-16T14:19:34.535Z,26.50
2019-05-16T14:22:10.603Z,26.50
2019-05-16T14:24:48.655Z,26.50
2019-05-16T14:27:26.693Z,26.40
2019-05-16T14:30:03.186Z,26.40
2019-05-16T14:32:42.807Z,26.40
2019-05-16T14:35:20.065Z,26.40
2019-05-16T14:38:00.644Z,26.30
2019-05-16T14:40:37.084Z,26.30
2019-05-16T14:43:18.043Z,26.30
2019-05-16T14:46:09.280Z,26.30
2019-05-16T14:48:47.028Z,26.20
2019-05-16T14:57:21.997Z,26.30
2019-05-16T15:00:02.704Z,26.20
2019-05-16T15:02:47.885Z,26.10
2019-05-16T15:05:23.434Z,26.10
2019-05-16T15:08:00.994Z,26.00
2019-05-16T15:10:37.788Z,26.00
2019-05-16T15:13:17.757Z,26.00
2019-05-16T15:15:56.886Z,26.00
2019-05-16T15:18:33.995Z,26.00
2019-05-16T15:21:11.907Z,26.00
2019-05-16T15:23:49.195Z,25.90
2019-05-16T15:26:27.191Z,25.80
2019-05-16T15:29:02.103Z,25.90
2019-05-16T15:31:39.822Z,25.90
2019-05-16T15:34:23.355Z,25.70
2019-05-16T15:37:00.243Z,25.70
2019-05-16T15:39:38.879Z,25.70
2019-05-16T15:42:20.915Z,25.70
2019-05-16T15:44:58.700Z,25.70
2019-05-16T15:50:43.028Z,25.80
2019-05-16T15:53:22.137Z,25.80
2019-05-16T15:56:00.468Z,25.80
2019-05-16T15:58:37.410Z,25.70
2019-05-16T16:01:19.567Z,25.70
2019-05-16T16:03:54.779Z,25.70
2019-05-16T16:06:34.178Z,25.70
2019-05-16T16:15:48.591Z,25.60
2019-05-16T16:18:21.860Z,25.70
2019-05-16T16:26:58.594Z,25.70
2019-05-16T16:29:41.544Z,25.60
2019-05-16T16:32:20.148Z,25.60
2019-05-16T16:34:57.354Z,25.60
2019-05-16T16:37:32.111Z,25.50
2019-05-16T16:40:11.666Z,25.50
2019-05-16T16:42:49.344Z,25.50
2019-05-16T16:45:23.946Z,25.50
2019-05-16T16:48:00.487Z,25.50
2019-05-16T16:50:36.935Z,25.50
2019-05-16T16:53:11.332Z,25.40
2019-05-16T16:55:48.428Z,25.40
2019-05-16T16:58:23.094Z,25.30
2019-05-16T17:00:57.451Z,25.30
2019-05-16T17:03:31.552Z,25.40
2019-05-16T17:06:07.062Z,25.40
2019-05-16T17:08:41.754Z,25.50
2019-05-16T17:11:16.260Z,25.40
2019-05-16T17:13:50.183Z,25.40
2019-05-16T17:16:28.455Z,25.30
2019-05-16T17:18:59.465Z,25.30
2019-05-16T17:21:36.662Z,25.30
2019-05-16T17:24:10.419Z,25.30
2019-05-16T17:26:47.521Z,25.20
2019-05-16T17:29:20.433Z,25.30
2019-05-16T17:32:00.535Z,25.30
2019-05-16T17:34:31.371Z,25.20
2019-05-16T17:37:09.436Z,25.20
2019-05-16T17:39:41.563Z,25.20
2019-05-16T17:42:16.578Z,25.10
2019-05-16T17:44:51.552Z,25.10
2019-05-16T17:47:26.371Z,25.10
2019-05-16T17:50:00.978Z,25.20
2019-05-16T17:52:36.909Z,25.20
2019-05-16T17:55:11.821Z,25.10
2019-05-16T17:57:45.854Z,25.10
2019-05-16T18:00:25.110Z,25.00
2019-05-16T18:02:56.996Z,25.00
2019-05-16T18:05:31.660Z,25.10
2019-05-16T18:08:07.435Z,25.00
2019-05-16T18:10:41.821Z,25.00
2019-05-16T18:13:16.270Z,25.00
2019-05-16T18:15:50.728Z,25.00
2019-05-16T18:18:26.866Z,24.90
2019-05-16T18:21:06.970Z,25.00
2019-05-16T18:23:40.752Z,25.00
2019-05-16T18:26:17.176Z,25.00
2019-05-16T18:28:51.391Z,25.00
2019-05-16T18:31:26.836Z,24.90
2019-05-16T18:34:01.273Z,25.00
2019-05-16T18:36:35.396Z,25.00
2019-05-16T18:39:09.978Z,25.00
2019-05-16T18:41:44.364Z,25.00
2019-05-16T18:44:19.321Z,24.90
2019-05-16T18:47:06.642Z,24.80
2019-05-16T18:49:30.964Z,24.80
2019-05-16T18:52:06.604Z,24.90
2019-05-16T18:54:41.273Z,24.90
2019-05-16T18:57:17.430Z,24.80
2019-05-16T18:59:50.976Z,24.80
2019-05-16T19:02:27.147Z,24.80
2019-05-16T19:05:02.236Z,24.80
2019-05-16T19:07:36.997Z,24.80
2019-05-16T19:10:12.018Z,24.70
2019-05-16T19:12:47.752Z,24.70
2019-05-16T19:15:21.904Z,24.70
2019-05-16T19:17:58.438Z,24.70
2019-05-16T19:20:32.282Z,24.70
2019-05-16T19:23:07.495Z,24.70
2019-05-16T19:25:42.585Z,24.50
2019-05-16T19:28:17.033Z,24.50
2019-05-16T19:30:51.402Z,24.60
2019-05-16T19:33:26.090Z,24.60
2019-05-16T19:36:00.437Z,24.70
2019-05-16T19:38:37.264Z,24.70
2019-05-16T19:41:10.641Z,24.70
2019-05-16T19:43:46.510Z,24.60
2019-05-16T19:46:23.258Z,24.50
2019-05-16T19:48:57.045Z,24.50
2019-05-16T19:51:31.966Z,24.60
2019-05-16T19:54:07.148Z,24.60
2019-05-16T19:56:41.847Z,24.60
2019-05-16T19:59:16.896Z,24.50
2019-05-16T20:01:51.090Z,24.50
2019-05-16T20:04:28.457Z,24.50
2019-05-16T20:07:02.434Z,24.40
2019-05-16T20:09:36.951Z,24.50
2019-05-16T20:12:11.462Z,24.60
2019-05-16T20:14:47.239Z,24.60
2019-05-16T20:17:21.731Z,24.60
2019-05-16T20:19:56.355Z,24.50
2019-05-16T20:22:31.065Z,24.60
2019-05-16T20:25:05.503Z,24.50
2019-05-16T20:27:39.875Z,24.40
2019-05-16T20:30:16.849Z,24.50
2019-05-16T20:32:50.793Z,24.40
2019-05-16T20:35:26.672Z,24.40
2019-05-16T20:38:01.564Z,24.40
2019-05-16T20:40:37.442Z,24.40
2019-05-16T20:43:13.021Z,24.40
2019-05-16T20:45:47.773Z,24.30
2019-05-16T20:48:22.443Z,24.40
2019-05-16T20:50:56.852Z,24.40
2019-05-16T20:53:31.469Z,24.50
2019-05-16T20:56:06.537Z,24.60
2019-05-16T20:58:40.737Z,24.70
2019-05-16T21:01:17.197Z,24.80
2019-05-16T21:03:51.024Z,24.90
2019-05-16T21:06:26.417Z,24.90
2019-05-16T21:09:02.204Z,24.90
2019-05-16T21:11:37.072Z,25.00
2019-05-16T21:14:16.299Z,24.90
2019-05-16T21:16:49.633Z,25.00
2019-05-16T21:19:24.536Z,25.00
2019-05-16T21:21:59.476Z,24.90
2019-05-16T21:24:42.951Z,25.00
2019-05-16T21:27:19.034Z,25.00
2019-05-16T21:29:53.293Z,25.00
2019-05-16T21:32:27.641Z,24.90
2019-05-16T21:35:02.051Z,25.00
2019-05-16T21:37:37.393Z,25.00
2019-05-16T21:40:12.702Z,25.00
2019-05-16T21:42:49.168Z,25.00
2019-05-16T21:45:23.434Z,25.00
2019-05-16T21:47:57.998Z,25.00
2019-05-16T21:50:37.308Z,25.10
2019-05-16T21:53:12.715Z,25.00
2019-05-16T21:55:47.182Z,25.10
2019-05-16T21:58:21.830Z,25.10
2019-05-16T22:01:00.853Z,25.10
2019-05-16T22:03:36.725Z,25.00
2019-05-16T22:06:11.504Z,25.10
2019-05-16T22:08:46.731Z,25.10
2019-05-16T22:11:21.072Z,25.10
2019-05-16T22:13:57.060Z,25.10
2019-05-16T22:16:31.881Z,25.10
2019-05-16T22:19:07.076Z,25.10
2019-05-16T22:21:41.236Z,25.10
2019-05-16T22:24:17.247Z,25.10
2019-05-16T22:26:51.703Z,25.10
2019-05-16T22:29:26.465Z,25.10
2019-05-16T22:32:01.281Z,25.10
2019-05-16T22:34:36.903Z,25.10
2019-05-16T22:37:11.542Z,25.00
2019-05-16T22:39:46.047Z,25.10
2019-05-16T22:42:20.706Z,25.10
2019-05-16T22:44:55.526Z,25.10
2019-05-16T22:47:29.537Z,25.10
2019-05-16T22:50:03.794Z,25.10
2019-05-16T22:52:39.604Z,25.20
2019-05-16T22:55:18.138Z,25.20
2019-05-16T22:57:56.278Z,25.20
2019-05-16T23:00:29.088Z,25.20
2019-05-16T23:03:06.744Z,25.30
2019-05-16T23:05:41.763Z,25.30
2019-05-16T23:08:16.563Z,25.40
2019-05-16T23:10:50.974Z,25.40
2019-05-16T23:13:26.585Z,25.40
2019-05-16T23:18:53.309Z,25.50
2019-05-16T23:21:30.321Z,25.60
2019-05-16T23:24:06.921Z,25.70
2019-05-16T23:26:48.434Z,25.80
2019-05-16T23:29:23.272Z,25.90
2019-05-16T23:32:07.165Z,26.00
2019-05-16T23:34:33.078Z,26.20
2019-05-16T23:37:07.620Z,26.30
2019-05-16T23:39:44.585Z,26.40
2019-05-16T23:42:17.287Z,26.50
2019-05-16T23:44:52.685Z,26.60
2019-05-16T23:47:27.047Z,26.60
2019-05-16T23:50:01.513Z,26.70
2019-05-16T23:52:38.439Z,26.70
2019-05-16T23:55:17.429Z,26.80
2019-05-16T23:57:52.869Z,26.80
